Constantine, Kentucky
Current Conditions -  °F | °C
As of 1:58 PM on Monday 26 Jan 2015 (Local Time) from KFTK Reporting Station
Overcast Overcast  
Wind Chill: 24°   Ceiling: 1800
Heat Index: 32°   Visibility: 10mi
Dew Point: 25°   Wind: 9mph
Humidity: 75%   Direction: 250°WSW
Pressure: 29.9"   Gusts: NA
Location:  37.8151°N, 86.3209°W
Report Text: KFTK 261958Z AUTO 25008KT 10SM OVC018 00/M04 A2990 RMK AO2 SLP135
Loading
Personal Weather Stations






























Interactive Weather Map New forecast layout! Learn more

10-Day Weather Forecast

Advertisements
Track Severe Weather on mobile